createdAt,value
2022-11-23T04:30:54.926Z,20.27
2022-11-23T04:46:00.899Z,15.73
2022-11-23T05:01:08.232Z,14.40
2022-11-23T05:16:21.955Z,16.63
2022-11-23T05:31:26.668Z,8.13
2022-11-23T05:46:31.655Z,12.73
2022-11-23T06:01:36.232Z,4.00
2022-11-23T06:16:41.868Z,13.07
2022-11-23T06:32:08.078Z,4.03
2022-11-23T06:47:16.867Z,8.77
2022-11-23T07:02:23.056Z,6.80
2022-11-23T07:17:27.895Z,4.93
2022-11-23T07:32:32.696Z,5.37
2022-11-23T07:47:37.369Z,6.13
2022-11-23T08:02:57.903Z,3.50
2022-11-23T08:18:06.351Z,4.10
2022-11-23T08:33:11.453Z,6.37
2022-11-23T08:48:15.988Z,5.53
2022-11-23T09:03:20.785Z,3.93
2022-11-23T09:18:25.216Z,6.37
2022-11-23T09:33:29.680Z,13.80
2022-11-23T09:48:47.007Z,10.33
2022-11-23T10:03:51.743Z,3.17
2022-11-23T10:19:04.007Z,14.73
2022-11-23T10:34:13.603Z,17.57
2022-11-23T10:49:23.315Z,26.00
2022-11-23T11:04:30.720Z,2.57
2022-11-23T11:19:38.958Z,3.27
2022-11-23T11:34:49.080Z,1.80
2022-11-23T11:49:57.080Z,1.63
2022-11-23T12:05:12.840Z,1.87
2022-11-23T12:20:25.445Z,24.00
2022-11-23T12:35:49.291Z,4.30
2022-11-23T12:51:01.069Z,8.10
2022-11-23T13:07:05.539Z,9.47
2022-11-23T13:22:15.876Z,11.00
2022-11-23T13:37:24.069Z,12.50
2022-11-23T13:52:31.693Z,22.17
2022-11-23T14:07:43.293Z,12.77
2022-11-23T14:23:10.298Z,14.50
2022-11-23T14:38:48.228Z,15.30
2022-11-23T14:53:56.479Z,9.50
2022-11-23T15:09:09.539Z,16.43
2022-11-23T15:24:23.726Z,12.47
2022-11-23T15:39:29.494Z,10.70
2022-11-23T15:54:37.032Z,10.63
2022-11-23T16:09:52.630Z,11.07
2022-11-23T16:25:04.326Z,9.93
2022-11-23T16:40:10.221Z,11.07
2022-11-23T16:55:14.828Z,19.13
2022-11-23T17:10:19.203Z,26.93
2022-11-23T17:40:28.541Z,34.80
2022-11-23T17:55:33.713Z,21.27
2022-11-23T18:10:38.169Z,21.47
2022-11-23T18:25:42.511Z,28.63
2022-11-23T18:40:46.948Z,21.47
2022-11-23T18:55:53.973Z,33.97
2022-11-23T19:11:08.171Z,25.40
2022-11-23T19:26:12.708Z,20.27
2022-11-23T19:41:17.685Z,25.57
2022-11-23T19:56:23.915Z,43.77
2022-11-23T20:11:29.860Z,28.17
2022-11-23T20:26:36.207Z,25.60
2022-11-23T20:41:40.830Z,30.17
2022-11-23T20:56:45.422Z,28.97
2022-11-23T21:12:07.275Z,32.83
